sensor_id;sensor_type;location;lat;lon;timestamp;temperature;humidity
14527;DHT22;7350;51.208;4.238;2023-01-24T00:01:02;16.20;99.90
14527;DHT22;7350;51.208;4.238;2023-01-24T00:03:29;16.20;99.90
14527;DHT22;7350;51.208;4.238;2023-01-24T00:05:58;16.20;99.90
14527;DHT22;7350;51.208;4.238;2023-01-24T00:08:25;16.20;99.90
14527;DHT22;7350;51.208;4.238;2023-01-24T00:10:58;16.20;99.90
14527;DHT22;7350;51.208;4.238;2023-01-24T00:13:26;16.10;99.90
14527;DHT22;7350;51.208;4.238;2023-01-24T00:16:02;16.10;99.90
14527;DHT22;7350;51.208;4.238;2023-01-24T00:18:29;16.10;99.90
14527;DHT22;7350;51.208;4.238;2023-01-24T00:21:04;16.10;99.90
14527;DHT22;7350;51.208;4.238;2023-01-24T00:23:31;16.10;99.90
14527;DHT22;7350;51.208;4.238;2023-01-24T00:25:58;16.10;99.90
14527;DHT22;7350;51.208;4.238;2023-01-24T00:28:25;16.00;99.90
14527;DHT22;7350;51.208;4.238;2023-01-24T00:30:52;16.00;99.90
14527;DHT22;7350;51.208;4.238;2023-01-24T00:33:19;16.00;99.90
14527;DHT22;7350;51.208;4.238;2023-01-24T00:35:46;16.00;99.90
14527;DHT22;7350;51.208;4.238;2023-01-24T00:38:14;16.00;99.90
14527;DHT22;7350;51.208;4.238;2023-01-24T00:40:41;16.00;99.90
14527;DHT22;7350;51.208;4.238;2023-01-24T00:43:08;16.00;99.90
14527;DHT22;7350;51.208;4.238;2023-01-24T00:45:35;15.90;99.90
14527;DHT22;7350;51.208;4.238;2023-01-24T00:48:03;15.90;99.90
14527;DHT22;7350;51.208;4.238;2023-01-24T00:50:30;15.90;99.90
14527;DHT22;7350;51.208;4.238;2023-01-24T00:52:57;15.90;99.90
14527;DHT22;7350;51.208;4.238;2023-01-24T00:55:26;15.90;99.90
14527;DHT22;7350;51.208;4.238;2023-01-24T00:57:53;15.90;99.90
14527;DHT22;7350;51.208;4.238;2023-01-24T01:00:20;15.90;99.90
14527;DHT22;7350;51.208;4.238;2023-01-24T01:02:48;15.90;99.90
14527;DHT22;7350;51.208;4.238;2023-01-24T01:05:15;15.90;99.90
14527;DHT22;7350;51.208;4.238;2023-01-24T01:07:43;15.90;99.90
14527;DHT22;7350;51.208;4.238;2023-01-24T01:10:10;15.80;99.90
14527;DHT22;7350;51.208;4.238;2023-01-24T01:12:39;15.80;99.90
14527;DHT22;7350;51.208;4.238;2023-01-24T01:15:07;15.80;99.90
14527;DHT22;7350;51.208;4.238;2023-01-24T01:17:34;15.80;99.90
14527;DHT22;7350;51.208;4.238;2023-01-24T01:20:01;15.80;99.90
14527;DHT22;7350;51.208;4.238;2023-01-24T01:22:28;15.80;99.90
14527;DHT22;7350;51.208;4.238;2023-01-24T01:24:55;15.80;99.90
14527;DHT22;7350;51.208;4.238;2023-01-24T01:27:22;15.70;99.90
14527;DHT22;7350;51.208;4.238;2023-01-24T01:29:51;15.70;99.90
14527;DHT22;7350;51.208;4.238;2023-01-24T01:32:17;15.80;99.90
14527;DHT22;7350;51.208;4.238;2023-01-24T01:34:44;15.80;99.90
14527;DHT22;7350;51.208;4.238;2023-01-24T01:37:11;15.70;99.90
14527;DHT22;7350;51.208;4.238;2023-01-24T01:39:38;15.70;99.90
14527;DHT22;7350;51.208;4.238;2023-01-24T01:42:05;15.70;99.90
14527;DHT22;7350;51.208;4.238;2023-01-24T01:44:32;15.70;99.90
14527;DHT22;7350;51.208;4.238;2023-01-24T01:47:16;15.70;99.90
14527;DHT22;7350;51.208;4.238;2023-01-24T01:49:48;15.60;99.90
14527;DHT22;7350;51.208;4.238;2023-01-24T01:52:18;15.60;99.90
14527;DHT22;7350;51.208;4.238;2023-01-24T01:54:46;15.60;99.90
14527;DHT22;7350;51.208;4.238;2023-01-24T01:57:16;15.60;99.90
14527;DHT22;7350;51.208;4.238;2023-01-24T01:59:48;15.60;99.90
14527;DHT22;7350;51.208;4.238;2023-01-24T02:02:19;15.60;99.90
14527;DHT22;7350;51.208;4.238;2023-01-24T02:04:48;15.60;99.90
14527;DHT22;7350;51.208;4.238;2023-01-24T02:07:19;15.50;99.90
14527;DHT22;7350;51.208;4.238;2023-01-24T02:09:49;15.50;99.90
14527;DHT22;7350;51.208;4.238;2023-01-24T02:12:20;15.50;99.90
14527;DHT22;7350;51.208;4.238;2023-01-24T02:14:48;15.50;99.90
14527;DHT22;7350;51.208;4.238;2023-01-24T02:17:36;15.50;99.90
14527;DHT22;7350;51.208;4.238;2023-01-24T02:20:18;15.50;99.90
14527;DHT22;7350;51.208;4.238;2023-01-24T02:22:54;15.50;99.90
14527;DHT22;7350;51.208;4.238;2023-01-24T02:25:29;15.50;99.90
14527;DHT22;7350;51.208;4.238;2023-01-24T02:27:59;15.50;99.90
14527;DHT22;7350;51.208;4.238;2023-01-24T02:30:26;15.40;99.90
14527;DHT22;7350;51.208;4.238;2023-01-24T02:32:53;15.40;99.90
14527;DHT22;7350;51.208;4.238;2023-01-24T02:35:26;15.40;99.90
14527;DHT22;7350;51.208;4.238;2023-01-24T02:37:55;15.40;99.90
14527;DHT22;7350;51.208;4.238;2023-01-24T02:40:23;15.40;99.90
14527;DHT22;7350;51.208;4.238;2023-01-24T02:42:52;15.40;99.90
14527;DHT22;7350;51.208;4.238;2023-01-24T02:45:23;15.40;99.90
14527;DHT22;7350;51.208;4.238;2023-01-24T02:47:53;15.40;99.90
14527;DHT22;7350;51.208;4.238;2023-01-24T02:50:22;15.40;99.90
14527;DHT22;7350;51.208;4.238;2023-01-24T02:52:49;15.40;99.90
14527;DHT22;7350;51.208;4.238;2023-01-24T02:55:34;15.40;99.90
14527;DHT22;7350;51.208;4.238;2023-01-24T02:58:23;15.40;99.90
14527;DHT22;7350;51.208;4.238;2023-01-24T03:00:50;15.40;99.90
14527;DHT22;7350;51.208;4.238;2023-01-24T03:03:17;15.30;99.90
14527;DHT22;7350;51.208;4.238;2023-01-24T03:05:44;15.30;99.90
14527;DHT22;7350;51.208;4.238;2023-01-24T03:08:22;15.30;99.90
14527;DHT22;7350;51.208;4.238;2023-01-24T03:10:49;15.30;99.90
14527;DHT22;7350;51.208;4.238;2023-01-24T03:13:16;15.30;99.90
14527;DHT22;7350;51.208;4.238;2023-01-24T03:16:03;15.30;99.90
14527;DHT22;7350;51.208;4.238;2023-01-24T03:18:48;15.30;99.90
14527;DHT22;7350;51.208;4.238;2023-01-24T03:21:32;15.30;99.90
14527;DHT22;7350;51.208;4.238;2023-01-24T03:24:16;15.20;99.90
14527;DHT22;7350;51.208;4.238;2023-01-24T03:27:01;15.20;99.90
14527;DHT22;7350;51.208;4.238;2023-01-24T03:29:45;15.20;99.90
14527;DHT22;7350;51.208;4.238;2023-01-24T03:32:31;15.20;99.90
14527;DHT22;7350;51.208;4.238;2023-01-24T03:35:16;15.20;99.90
14527;DHT22;7350;51.208;4.238;2023-01-24T03:37:43;15.20;99.90
14527;DHT22;7350;51.208;4.238;2023-01-24T03:40:27;15.20;99.90
14527;DHT22;7350;51.208;4.238;2023-01-24T03:42:54;15.20;99.90
14527;DHT22;7350;51.208;4.238;2023-01-24T03:45:23;15.10;99.90
14527;DHT22;7350;51.208;4.238;2023-01-24T03:47:53;15.20;99.90
14527;DHT22;7350;51.208;4.238;2023-01-24T03:50:25;15.10;99.90
14527;DHT22;7350;51.208;4.238;2023-01-24T03:53:10;15.10;99.90
14527;DHT22;7350;51.208;4.238;2023-01-24T03:55:37;15.10;99.90
14527;DHT22;7350;51.208;4.238;2023-01-24T03:58:05;15.10;99.90
14527;DHT22;7350;51.208;4.238;2023-01-24T04:00:33;15.10;99.90
14527;DHT22;7350;51.208;4.238;2023-01-24T04:03:01;15.10;99.90
14527;DHT22;7350;51.208;4.238;2023-01-24T04:05:28;15.10;99.90
14527;DHT22;7350;51.208;4.238;2023-01-24T04:07:56;15.10;99.90
14527;DHT22;7350;51.208;4.238;2023-01-24T04:10:23;15.10;99.90
14527;DHT22;7350;51.208;4.238;2023-01-24T04:12:50;15.10;99.90
14527;DHT22;7350;51.208;4.238;2023-01-24T04:15:18;15.10;99.90
14527;DHT22;7350;51.208;4.238;2023-01-24T04:17:45;15.10;99.90
14527;DHT22;7350;51.208;4.238;2023-01-24T04:20:15;15.10;99.90
14527;DHT22;7350;51.208;4.238;2023-01-24T04:22:42;15.10;99.90
14527;DHT22;7350;51.208;4.238;2023-01-24T04:25:10;15.20;99.90
14527;DHT22;7350;51.208;4.238;2023-01-24T04:27:37;15.20;99.90
14527;DHT22;7350;51.208;4.238;2023-01-24T04:30:05;15.20;99.90
14527;DHT22;7350;51.208;4.238;2023-01-24T04:32:32;15.30;99.90
14527;DHT22;7350;51.208;4.238;2023-01-24T04:34:59;15.40;99.90
14527;DHT22;7350;51.208;4.238;2023-01-24T04:37:28;15.40;99.90
14527;DHT22;7350;51.208;4.238;2023-01-24T04:39:55;15.50;99.90
14527;DHT22;7350;51.208;4.238;2023-01-24T04:42:22;15.60;99.90
14527;DHT22;7350;51.208;4.238;2023-01-24T04:44:49;15.80;99.90
14527;DHT22;7350;51.208;4.238;2023-01-24T04:47:16;15.90;99.90
14527;DHT22;7350;51.208;4.238;2023-01-24T04:49:43;16.00;99.90
14527;DHT22;7350;51.208;4.238;2023-01-24T04:52:11;16.10;99.90
14527;DHT22;7350;51.208;4.238;2023-01-24T04:54:40;16.10;99.90
14527;DHT22;7350;51.208;4.238;2023-01-24T04:57:07;16.20;99.90
14527;DHT22;7350;51.208;4.238;2023-01-24T04:59:36;16.20;99.90
14527;DHT22;7350;51.208;4.238;2023-01-24T05:02:04;16.20;99.90
14527;DHT22;7350;51.208;4.238;2023-01-24T05:04:31;16.30;99.90
14527;DHT22;7350;51.208;4.238;2023-01-24T05:06:58;16.30;99.90
14527;DHT22;7350;51.208;4.238;2023-01-24T05:09:25;16.30;99.90
14527;DHT22;7350;51.208;4.238;2023-01-24T05:11:53;16.30;99.90
14527;DHT22;7350;51.208;4.238;2023-01-24T05:14:20;16.40;99.90
14527;DHT22;7350;51.208;4.238;2023-01-24T05:16:47;16.40;99.90
14527;DHT22;7350;51.208;4.238;2023-01-24T05:19:14;16.50;99.90
14527;DHT22;7350;51.208;4.238;2023-01-24T05:21:41;16.50;99.90
14527;DHT22;7350;51.208;4.238;2023-01-24T05:24:08;16.50;99.90
14527;DHT22;7350;51.208;4.238;2023-01-24T05:26:35;16.50;99.90
14527;DHT22;7350;51.208;4.238;2023-01-24T05:29:09;16.50;99.90
14527;DHT22;7350;51.208;4.238;2023-01-24T05:31:36;16.60;99.90
14527;DHT22;7350;51.208;4.238;2023-01-24T05:34:03;16.60;99.90
14527;DHT22;7350;51.208;4.238;2023-01-24T05:36:31;16.60;99.90
14527;DHT22;7350;51.208;4.238;2023-01-24T05:38:58;16.60;99.90
14527;DHT22;7350;51.208;4.238;2023-01-24T05:41:25;16.60;99.90
14527;DHT22;7350;51.208;4.238;2023-01-24T05:43:52;16.60;99.90
14527;DHT22;7350;51.208;4.238;2023-01-24T05:46:21;16.60;99.90
14527;DHT22;7350;51.208;4.238;2023-01-24T05:48:49;16.70;99.90
14527;DHT22;7350;51.208;4.238;2023-01-24T05:51:17;16.70;99.90
14527;DHT22;7350;51.208;4.238;2023-01-24T05:53:45;16.70;99.90
14527;DHT22;7350;51.208;4.238;2023-01-24T05:56:14;16.80;99.90
14527;DHT22;7350;51.208;4.238;2023-01-24T05:58:42;16.80;99.90
14527;DHT22;7350;51.208;4.238;2023-01-24T06:01:11;16.80;99.90
14527;DHT22;7350;51.208;4.238;2023-01-24T06:03:40;16.80;99.90
14527;DHT22;7350;51.208;4.238;2023-01-24T06:06:11;16.90;99.90
14527;DHT22;7350;51.208;4.238;2023-01-24T06:08:39;16.90;99.90
14527;DHT22;7350;51.208;4.238;2023-01-24T06:11:09;16.90;99.90
14527;DHT22;7350;51.208;4.238;2023-01-24T06:13:36;16.90;99.90
14527;DHT22;7350;51.208;4.238;2023-01-24T06:16:04;16.90;99.90
14527;DHT22;7350;51.208;4.238;2023-01-24T06:18:32;16.90;99.90
14527;DHT22;7350;51.208;4.238;2023-01-24T06:21:06;16.90;99.90
14527;DHT22;7350;51.208;4.238;2023-01-24T06:23:34;16.90;99.90
14527;DHT22;7350;51.208;4.238;2023-01-24T06:26:01;16.90;99.90
14527;DHT22;7350;51.208;4.238;2023-01-24T06:28:29;16.90;99.90
14527;DHT22;7350;51.208;4.238;2023-01-24T06:31:03;16.90;99.90
14527;DHT22;7350;51.208;4.238;2023-01-24T06:33:38;16.90;99.90
14527;DHT22;7350;51.208;4.238;2023-01-24T06:36:19;16.90;99.90
14527;DHT22;7350;51.208;4.238;2023-01-24T06:38:49;16.90;99.90
14527;DHT22;7350;51.208;4.238;2023-01-24T06:41:17;16.80;99.90
14527;DHT22;7350;51.208;4.238;2023-01-24T06:43:44;16.90;99.90
14527;DHT22;7350;51.208;4.238;2023-01-24T06:46:12;16.90;99.90
14527;DHT22;7350;51.208;4.238;2023-01-24T06:48:42;16.80;99.90
14527;DHT22;7350;51.208;4.238;2023-01-24T06:51:12;16.90;99.90
14527;DHT22;7350;51.208;4.238;2023-01-24T06:53:40;16.80;99.90
14527;DHT22;7350;51.208;4.238;2023-01-24T06:56:08;16.80;99.90
14527;DHT22;7350;51.208;4.238;2023-01-24T06:58:35;16.80;99.90
14527;DHT22;7350;51.208;4.238;2023-01-24T07:01:02;16.70;99.90
14527;DHT22;7350;51.208;4.238;2023-01-24T07:03:29;16.70;99.90
14527;DHT22;7350;51.208;4.238;2023-01-24T07:05:56;16.80;99.90
14527;DHT22;7350;51.208;4.238;2023-01-24T07:08:24;16.70;99.90
14527;DHT22;7350;51.208;4.238;2023-01-24T07:10:51;16.70;99.90
14527;DHT22;7350;51.208;4.238;2023-01-24T07:13:18;16.70;99.90
14527;DHT22;7350;51.208;4.238;2023-01-24T07:15:45;16.70;99.90
14527;DHT22;7350;51.208;4.238;2023-01-24T07:18:13;16.60;99.90
14527;DHT22;7350;51.208;4.238;2023-01-24T07:20:41;16.60;99.90
14527;DHT22;7350;51.208;4.238;2023-01-24T07:23:20;16.60;99.90
14527;DHT22;7350;51.208;4.238;2023-01-24T07:25:51;16.60;99.90
14527;DHT22;7350;51.208;4.238;2023-01-24T07:28:18;16.50;99.90
14527;DHT22;7350;51.208;4.238;2023-01-24T07:30:45;16.40;99.90
14527;DHT22;7350;51.208;4.238;2023-01-24T07:33:13;16.40;99.90
14527;DHT22;7350;51.208;4.238;2023-01-24T07:35:40;16.40;99.90
14527;DHT22;7350;51.208;4.238;2023-01-24T07:38:07;16.40;99.90
14527;DHT22;7350;51.208;4.238;2023-01-24T07:40:35;16.40;99.90
14527;DHT22;7350;51.208;4.238;2023-01-24T07:43:04;16.40;99.90
14527;DHT22;7350;51.208;4.238;2023-01-24T07:45:32;16.40;99.90
14527;DHT22;7350;51.208;4.238;2023-01-24T07:48:00;16.40;99.90
14527;DHT22;7350;51.208;4.238;2023-01-24T07:50:28;16.40;99.90
14527;DHT22;7350;51.208;4.238;2023-01-24T07:52:57;16.30;99.90
14527;DHT22;7350;51.208;4.238;2023-01-24T07:55:25;16.30;99.90
14527;DHT22;7350;51.208;4.238;2023-01-24T07:57:57;16.30;99.90
14527;DHT22;7350;51.208;4.238;2023-01-24T08:00:26;16.30;99.90
14527;DHT22;7350;51.208;4.238;2023-01-24T08:02:53;16.30;99.90
14527;DHT22;7350;51.208;4.238;2023-01-24T08:05:20;16.30;99.90
14527;DHT22;7350;51.208;4.238;2023-01-24T08:07:47;16.30;99.90
14527;DHT22;7350;51.208;4.238;2023-01-24T08:10:14;16.30;99.90
14527;DHT22;7350;51.208;4.238;2023-01-24T08:12:41;16.30;99.90
14527;DHT22;7350;51.208;4.238;2023-01-24T08:15:08;16.20;99.90
14527;DHT22;7350;51.208;4.238;2023-01-24T08:17:37;16.30;99.90
14527;DHT22;7350;51.208;4.238;2023-01-24T08:20:06;16.20;99.90
14527;DHT22;7350;51.208;4.238;2023-01-24T08:22:33;16.20;99.90
14527;DHT22;7350;51.208;4.238;2023-01-24T08:25:00;16.20;99.90
14527;DHT22;7350;51.208;4.238;2023-01-24T08:27:27;16.20;99.90
14527;DHT22;7350;51.208;4.238;2023-01-24T08:29:54;16.20;99.90
14527;DHT22;7350;51.208;4.238;2023-01-24T08:32:21;16.10;99.90
14527;DHT22;7350;51.208;4.238;2023-01-24T08:34:50;16.10;99.90
14527;DHT22;7350;51.208;4.238;2023-01-24T08:37:17;16.10;99.90
14527;DHT22;7350;51.208;4.238;2023-01-24T08:39:44;16.10;99.90
14527;DHT22;7350;51.208;4.238;2023-01-24T08:42:11;16.10;99.90
14527;DHT22;7350;51.208;4.238;2023-01-24T08:44:38;16.00;99.90
14527;DHT22;7350;51.208;4.238;2023-01-24T08:47:05;16.00;99.90
14527;DHT22;7350;51.208;4.238;2023-01-24T08:49:32;16.00;99.90
14527;DHT22;7350;51.208;4.238;2023-01-24T08:52:01;16.00;99.90
14527;DHT22;7350;51.208;4.238;2023-01-24T08:54:28;16.00;99.90
14527;DHT22;7350;51.208;4.238;2023-01-24T08:56:57;16.00;99.90
14527;DHT22;7350;51.208;4.238;2023-01-24T08:59:25;15.90;99.90
14527;DHT22;7350;51.208;4.238;2023-01-24T09:01:52;15.90;99.90
14527;DHT22;7350;51.208;4.238;2023-01-24T09:04:19;15.90;99.90
14527;DHT22;7350;51.208;4.238;2023-01-24T09:06:46;15.90;99.90
14527;DHT22;7350;51.208;4.238;2023-01-24T09:09:15;15.90;99.90
14527;DHT22;7350;51.208;4.238;2023-01-24T09:11:42;15.90;99.90
14527;DHT22;7350;51.208;4.238;2023-01-24T09:14:09;15.90;99.90
14527;DHT22;7350;51.208;4.238;2023-01-24T09:16:36;15.90;99.90
14527;DHT22;7350;51.208;4.238;2023-01-24T09:19:03;15.90;99.90
14527;DHT22;7350;51.208;4.238;2023-01-24T09:21:30;15.90;99.90
14527;DHT22;7350;51.208;4.238;2023-01-24T09:23:58;15.80;99.90
14527;DHT22;7350;51.208;4.238;2023-01-24T09:26:26;15.80;99.90
14527;DHT22;7350;51.208;4.238;2023-01-24T09:28:53;15.80;99.90
14527;DHT22;7350;51.208;4.238;2023-01-24T09:31:21;15.80;99.90
14527;DHT22;7350;51.208;4.238;2023-01-24T09:33:48;15.80;99.90
14527;DHT22;7350;51.208;4.238;2023-01-24T09:36:15;15.70;99.90
14527;DHT22;7350;51.208;4.238;2023-01-24T09:38:41;15.70;99.90
14527;DHT22;7350;51.208;4.238;2023-01-24T09:41:16;15.70;99.90
14527;DHT22;7350;51.208;4.238;2023-01-24T09:43:50;15.70;99.90
14527;DHT22;7350;51.208;4.238;2023-01-24T09:46:22;15.70;99.90
14527;DHT22;7350;51.208;4.238;2023-01-24T09:49:07;15.70;99.90
14527;DHT22;7350;51.208;4.238;2023-01-24T09:51:40;15.60;99.90
14527;DHT22;7350;51.208;4.238;2023-01-24T09:54:15;15.60;99.90
14527;DHT22;7350;51.208;4.238;2023-01-24T09:56:43;15.60;99.90
14527;DHT22;7350;51.208;4.238;2023-01-24T09:59:22;15.60;99.90
14527;DHT22;7350;51.208;4.238;2023-01-24T10:01:51;15.60;99.90
14527;DHT22;7350;51.208;4.238;2023-01-24T10:04:24;15.60;99.90
14527;DHT22;7350;51.208;4.238;2023-01-24T10:09:57;15.60;99.90
14527;DHT22;7350;51.208;4.238;2023-01-24T10:12:42;15.50;99.90
14527;DHT22;7350;51.208;4.238;2023-01-24T10:15:20;15.50;99.90
14527;DHT22;7350;51.208;4.238;2023-01-24T10:20:55;15.50;99.90
14527;DHT22;7350;51.208;4.238;2023-01-24T10:23:26;15.50;99.90
14527;DHT22;7350;51.208;4.238;2023-01-24T10:25:56;15.50;99.90
14527;DHT22;7350;51.208;4.238;2023-01-24T10:28:28;15.50;99.90
14527;DHT22;7350;51.208;4.238;2023-01-24T10:31:05;15.50;99.90
14527;DHT22;7350;51.208;4.238;2023-01-24T10:33:37;15.50;99.90
14527;DHT22;7350;51.208;4.238;2023-01-24T10:36:10;15.50;99.90
14527;DHT22;7350;51.208;4.238;2023-01-24T10:38:38;15.50;99.90
14527;DHT22;7350;51.208;4.238;2023-01-24T10:41:15;15.50;99.90
14527;DHT22;7350;51.208;4.238;2023-01-24T10:43:44;15.50;99.90
14527;DHT22;7350;51.208;4.238;2023-01-24T10:49:11;15.40;99.90
14527;DHT22;7350;51.208;4.238;2023-01-24T10:51:42;15.40;99.90
14527;DHT22;7350;51.208;4.238;2023-01-24T10:54:19;15.40;99.90
14527;DHT22;7350;51.208;4.238;2023-01-24T10:56:48;15.40;99.90
14527;DHT22;7350;51.208;4.238;2023-01-24T10:59:15;15.40;99.90
14527;DHT22;7350;51.208;4.238;2023-01-24T11:01:45;15.40;99.90
14527;DHT22;7350;51.208;4.238;2023-01-24T11:04:20;15.40;99.90
14527;DHT22;7350;51.208;4.238;2023-01-24T11:06:49;15.40;99.90
14527;DHT22;7350;51.208;4.238;2023-01-24T11:09:18;15.40;99.90
14527;DHT22;7350;51.208;4.238;2023-01-24T11:11:49;15.40;99.90
14527;DHT22;7350;51.208;4.238;2023-01-24T11:14:20;15.40;99.90
14527;DHT22;7350;51.208;4.238;2023-01-24T11:16:51;15.40;99.90
14527;DHT22;7350;51.208;4.238;2023-01-24T11:19:26;15.40;99.90
14527;DHT22;7350;51.208;4.238;2023-01-24T11:21:55;15.20;99.90
14527;DHT22;7350;51.208;4.238;2023-01-24T11:24:23;15.20;99.90
14527;DHT22;7350;51.208;4.238;2023-01-24T11:26:55;15.20;99.90
14527;DHT22;7350;51.208;4.238;2023-01-24T11:29:24;15.20;99.90
14527;DHT22;7350;51.208;4.238;2023-01-24T11:31:53;15.20;99.90
14527;DHT22;7350;51.208;4.238;2023-01-24T11:34:37;15.30;99.90
14527;DHT22;7350;51.208;4.238;2023-01-24T11:37:19;15.30;99.90
14527;DHT22;7350;51.208;4.238;2023-01-24T11:39:56;15.30;99.90
14527;DHT22;7350;51.208;4.238;2023-01-24T11:42:31;15.30;99.90
14527;DHT22;7350;51.208;4.238;2023-01-24T11:45:25;15.30;99.90
14527;DHT22;7350;51.208;4.238;2023-01-24T11:48:06;15.30;99.90
14527;DHT22;7350;51.208;4.238;2023-01-24T11:50:41;15.30;99.90
14527;DHT22;7350;51.208;4.238;2023-01-24T11:53:52;15.30;99.90
14527;DHT22;7350;51.208;4.238;2023-01-24T11:56:32;15.30;99.90
14527;DHT22;7350;51.208;4.238;2023-01-24T12:02:05;15.30;99.90
14527;DHT22;7350;51.208;4.238;2023-01-24T12:04:54;15.20;99.90
14527;DHT22;7350;51.208;4.238;2023-01-24T12:07:31;15.20;99.90
14527;DHT22;7350;51.208;4.238;2023-01-24T12:10:11;15.20;99.90
14527;DHT22;7350;51.208;4.238;2023-01-24T12:12:49;15.20;99.90
14527;DHT22;7350;51.208;4.238;2023-01-24T12:15:50;15.20;99.90
14527;DHT22;7350;51.208;4.238;2023-01-24T12:18:32;15.20;99.90
14527;DHT22;7350;51.208;4.238;2023-01-24T12:21:05;15.20;99.90
14527;DHT22;7350;51.208;4.238;2023-01-24T12:23:41;15.20;99.90
14527;DHT22;7350;51.208;4.238;2023-01-24T12:26:14;15.20;99.90
14527;DHT22;7350;51.208;4.238;2023-01-24T12:28:48;15.20;99.90
14527;DHT22;7350;51.208;4.238;2023-01-24T12:31:23;15.20;99.90
14527;DHT22;7350;51.208;4.238;2023-01-24T12:33:55;15.10;99.90
14527;DHT22;7350;51.208;4.238;2023-01-24T12:36:35;15.10;99.90
14527;DHT22;7350;51.208;4.238;2023-01-24T12:39:12;15.10;99.90
14527;DHT22;7350;51.208;4.238;2023-01-24T12:41:40;15.10;99.90
14527;DHT22;7350;51.208;4.238;2023-01-24T12:44:23;15.10;99.90
14527;DHT22;7350;51.208;4.238;2023-01-24T12:47:02;15.10;99.90
14527;DHT22;7350;51.208;4.238;2023-01-24T12:49:38;15.10;99.90
14527;DHT22;7350;51.208;4.238;2023-01-24T12:52:17;15.10;99.90
14527;DHT22;7350;51.208;4.238;2023-01-24T12:54:50;15.10;99.90
14527;DHT22;7350;51.208;4.238;2023-01-24T12:57:27;15.10;99.90
14527;DHT22;7350;51.208;4.238;2023-01-24T12:59:56;15.00;99.90
14527;DHT22;7350;51.208;4.238;2023-01-24T13:02:43;15.10;99.90
14527;DHT22;7350;51.208;4.238;2023-01-24T13:05:27;15.10;99.90
14527;DHT22;7350;51.208;4.238;2023-01-24T13:08:09;15.00;99.90
14527;DHT22;7350;51.208;4.238;2023-01-24T13:10:48;15.00;99.90
14527;DHT22;7350;51.208;4.238;2023-01-24T13:13:22;15.00;99.90
14527;DHT22;7350;51.208;4.238;2023-01-24T13:16:03;15.00;99.90
14527;DHT22;7350;51.208;4.238;2023-01-24T13:18:43;15.00;99.90
14527;DHT22;7350;51.208;4.238;2023-01-24T13:21:18;15.00;99.90
14527;DHT22;7350;51.208;4.238;2023-01-24T13:24:18;15.00;99.90
14527;DHT22;7350;51.208;4.238;2023-01-24T13:27:02;15.00;99.90
14527;DHT22;7350;51.208;4.238;2023-01-24T13:29:47;15.00;99.90
14527;DHT22;7350;51.208;4.238;2023-01-24T13:32:19;15.00;99.90
14527;DHT22;7350;51.208;4.238;2023-01-24T13:34:49;15.00;99.90
14527;DHT22;7350;51.208;4.238;2023-01-24T13:37:20;15.00;99.90
14527;DHT22;7350;51.208;4.238;2023-01-24T13:39:59;15.00;99.90
14527;DHT22;7350;51.208;4.238;2023-01-24T13:42:32;15.00;99.90
14527;DHT22;7350;51.208;4.238;2023-01-24T13:48:44;14.90;99.90
14527;DHT22;7350;51.208;4.238;2023-01-24T13:51:41;14.90;99.90
14527;DHT22;7350;51.208;4.238;2023-01-24T13:54:18;15.00;99.90
14527;DHT22;7350;51.208;4.238;2023-01-24T13:57:15;15.00;99.90
14527;DHT22;7350;51.208;4.238;2023-01-24T13:59:58;15.00;99.90
14527;DHT22;7350;51.208;4.238;2023-01-24T14:02:29;15.10;99.90
14527;DHT22;7350;51.208;4.238;2023-01-24T14:04:57;15.20;99.90
14527;DHT22;7350;51.208;4.238;2023-01-24T14:07:28;15.30;99.90
14527;DHT22;7350;51.208;4.238;2023-01-24T14:09:59;15.40;99.90
14527;DHT22;7350;51.208;4.238;2023-01-24T14:12:29;15.40;99.90
14527;DHT22;7350;51.208;4.238;2023-01-24T14:15:00;15.40;99.90
14527;DHT22;7350;51.208;4.238;2023-01-24T14:17:45;15.40;99.90
14527;DHT22;7350;51.208;4.238;2023-01-24T14:20:29;15.40;99.90
14527;DHT22;7350;51.208;4.238;2023-01-24T14:23:03;15.40;99.90
14527;DHT22;7350;51.208;4.238;2023-01-24T14:25:46;15.50;99.90
14527;DHT22;7350;51.208;4.238;2023-01-24T14:28:23;15.50;99.90
14527;DHT22;7350;51.208;4.238;2023-01-24T14:30:55;15.50;99.90
14527;DHT22;7350;51.208;4.238;2023-01-24T14:33:34;15.50;99.90
14527;DHT22;7350;51.208;4.238;2023-01-24T14:36:19;15.50;99.90
14527;DHT22;7350;51.208;4.238;2023-01-24T14:38:47;15.60;99.90
14527;DHT22;7350;51.208;4.238;2023-01-24T14:41:20;15.50;99.90
14527;DHT22;7350;51.208;4.238;2023-01-24T14:43:49;15.60;99.90
14527;DHT22;7350;51.208;4.238;2023-01-24T14:46:20;15.60;99.90
14527;DHT22;7350;51.208;4.238;2023-01-24T14:48:48;15.70;99.90
14527;DHT22;7350;51.208;4.238;2023-01-24T14:51:17;15.80;99.90
14527;DHT22;7350;51.208;4.238;2023-01-24T14:53:49;15.80;99.90
14527;DHT22;7350;51.208;4.238;2023-01-24T14:56:16;15.90;99.90
14527;DHT22;7350;51.208;4.238;2023-01-24T14:58:43;16.00;99.90
14527;DHT22;7350;51.208;4.238;2023-01-24T15:01:24;16.10;99.90
14527;DHT22;7350;51.208;4.238;2023-01-24T15:03:52;16.30;99.90
14527;DHT22;7350;51.208;4.238;2023-01-24T15:06:21;16.30;99.90
14527;DHT22;7350;51.208;4.238;2023-01-24T15:08:49;16.40;99.90
14527;DHT22;7350;51.208;4.238;2023-01-24T15:11:21;16.50;99.90
14527;DHT22;7350;51.208;4.238;2023-01-24T15:13:50;16.60;99.90
14527;DHT22;7350;51.208;4.238;2023-01-24T15:16:19;16.70;99.90
14527;DHT22;7350;51.208;4.238;2023-01-24T15:18:49;16.70;99.90
14527;DHT22;7350;51.208;4.238;2023-01-24T15:21:30;16.80;99.90
14527;DHT22;7350;51.208;4.238;2023-01-24T15:23:58;16.80;99.90
14527;DHT22;7350;51.208;4.238;2023-01-24T15:26:40;16.90;99.90
14527;DHT22;7350;51.208;4.238;2023-01-24T15:32:27;17.10;99.90
14527;DHT22;7350;51.208;4.238;2023-01-24T15:35:16;17.10;99.90
14527;DHT22;7350;51.208;4.238;2023-01-24T15:37:46;17.20;99.90
14527;DHT22;7350;51.208;4.238;2023-01-24T15:40:17;17.30;99.90
14527;DHT22;7350;51.208;4.238;2023-01-24T15:42:45;17.30;99.90
14527;DHT22;7350;51.208;4.238;2023-01-24T15:45:32;17.40;99.90
14527;DHT22;7350;51.208;4.238;2023-01-24T15:48:17;17.40;99.90
14527;DHT22;7350;51.208;4.238;2023-01-24T15:50:54;17.50;99.90
14527;DHT22;7350;51.208;4.238;2023-01-24T15:53:36;17.60;99.90
14527;DHT22;7350;51.208;4.238;2023-01-24T15:56:06;17.60;99.90
14527;DHT22;7350;51.208;4.238;2023-01-24T15:58:36;17.70;99.90
14527;DHT22;7350;51.208;4.238;2023-01-24T16:01:04;17.70;99.90
14527;DHT22;7350;51.208;4.238;2023-01-24T16:03:31;17.80;99.90
14527;DHT22;7350;51.208;4.238;2023-01-24T16:06:00;17.80;99.90
14527;DHT22;7350;51.208;4.238;2023-01-24T16:08:27;17.80;99.90
14527;DHT22;7350;51.208;4.238;2023-01-24T16:10:54;17.80;99.90
14527;DHT22;7350;51.208;4.238;2023-01-24T16:13:28;17.80;99.90
14527;DHT22;7350;51.208;4.238;2023-01-24T16:15:56;17.80;99.90
14527;DHT22;7350;51.208;4.238;2023-01-24T16:18:23;17.70;99.90
14527;DHT22;7350;51.208;4.238;2023-01-24T16:20:50;17.70;99.90
14527;DHT22;7350;51.208;4.238;2023-01-24T16:23:19;17.70;99.90
14527;DHT22;7350;51.208;4.238;2023-01-24T16:25:48;17.80;99.90
14527;DHT22;7350;51.208;4.238;2023-01-24T16:28:19;17.70;99.90
14527;DHT22;7350;51.208;4.238;2023-01-24T16:30:47;17.80;99.90